createdAt,value
2022-08-21T00:01:50.856Z,99.90
2022-08-21T00:04:22.154Z,99.90
2022-08-21T00:06:50.064Z,99.90
2022-08-21T00:09:19.360Z,99.90
2022-08-21T00:11:46.187Z,99.90
2022-08-21T00:14:13.877Z,99.90
2022-08-21T00:16:40.904Z,99.90
2022-08-21T00:19:07.951Z,99.90
2022-08-21T00:21:35.251Z,99.90
2022-08-21T00:24:02.586Z,99.90
2022-08-21T00:26:29.407Z,99.90
2022-08-21T00:28:56.132Z,99.90
2022-08-21T00:31:25.762Z,99.90
2022-08-21T00:33:52.660Z,99.90
2022-08-21T00:36:26.197Z,99.90
2022-08-21T00:38:52.870Z,99.90
2022-08-21T00:41:36.579Z,99.90
2022-08-21T00:44:09.536Z,99.90
2022-08-21T00:46:37.030Z,99.90
2022-08-21T00:49:04.678Z,99.90
2022-08-21T00:51:39.826Z,99.90
2022-08-21T00:54:11.618Z,99.90
2022-08-21T00:56:47.123Z,99.90
2022-08-21T00:59:15.839Z,99.90
2022-08-21T01:01:42.526Z,99.90
2022-08-21T01:04:09.268Z,99.90
2022-08-21T01:06:36.330Z,99.90
2022-08-21T01:09:03.370Z,99.90
2022-08-21T01:11:30.302Z,99.90
2022-08-21T01:13:57.077Z,99.90
2022-08-21T01:16:24.116Z,99.90
2022-08-21T01:18:51.467Z,99.90
2022-08-21T01:21:20.277Z,99.90
2022-08-21T01:23:48.428Z,99.90
2022-08-21T01:26:17.216Z,99.90
2022-08-21T05:32:46.800Z,99.90
2022-08-21T05:35:13.445Z,99.90
2022-08-21T05:37:40.357Z,99.90
2022-08-21T05:40:21.753Z,99.90
2022-08-21T05:42:56.570Z,99.90
2022-08-21T05:45:41.834Z,99.90
2022-08-21T05:48:18.147Z,99.90
2022-08-21T05:50:45.725Z,99.90
2022-08-21T05:53:13.477Z,99.90
2022-08-21T05:55:45.296Z,99.90
2022-08-21T05:58:13.334Z,99.90
2022-08-21T06:00:40.503Z,99.90
2022-08-21T06:03:11.513Z,99.90
2022-08-21T06:05:38.739Z,99.90
2022-08-21T06:08:05.468Z,99.90
2022-08-21T06:10:32.339Z,99.90
2022-08-21T06:12:59.167Z,99.90
2022-08-21T06:15:27.377Z,99.90
2022-08-21T06:17:54.809Z,99.90
2022-08-21T06:20:21.622Z,99.90
2022-08-21T06:22:48.294Z,99.90
2022-08-21T06:25:15.021Z,99.90
2022-08-21T06:27:41.885Z,99.90
2022-08-21T06:30:09.119Z,99.90
2022-08-21T06:32:36.219Z,99.90
2022-08-21T06:35:03.185Z,99.90
2022-08-21T06:37:30.184Z,99.90
2022-08-21T06:39:56.976Z,99.90
2022-08-21T06:42:27.887Z,99.90
2022-08-21T06:44:54.847Z,99.90
2022-08-21T06:47:21.703Z,99.90
2022-08-21T06:49:48.308Z,99.90
2022-08-21T06:52:16.286Z,99.90
2022-08-21T06:54:43.023Z,99.90
2022-08-21T06:57:09.863Z,99.90
2022-08-21T06:59:36.619Z,99.90
2022-08-21T07:02:03.445Z,99.90
2022-08-21T07:04:30.136Z,99.90
2022-08-21T07:06:56.892Z,99.90
2022-08-21T07:09:24.841Z,99.90
2022-08-21T07:11:53.220Z,99.90
2022-08-21T07:14:20.077Z,99.90
2022-08-21T07:16:47.655Z,99.90
2022-08-21T07:19:14.422Z,99.90
2022-08-21T07:21:41.183Z,99.90
2022-08-21T07:24:07.847Z,99.90
2022-08-21T07:26:34.520Z,99.90
2022-08-21T07:29:01.191Z,99.90
2022-08-21T07:31:28.079Z,99.90
2022-08-21T07:33:55.213Z,99.90
2022-08-21T07:36:22.021Z,99.90
2022-08-21T07:38:48.943Z,99.90
2022-08-21T07:41:24.013Z,99.90
2022-08-21T07:43:52.849Z,99.90
2022-08-21T07:46:20.574Z,99.90
2022-08-21T07:48:47.468Z,99.90
2022-08-21T07:51:15.666Z,99.90
2022-08-21T07:53:42.449Z,99.90
2022-08-21T07:56:09.551Z,99.90
2022-08-21T07:58:36.179Z,99.90
2022-08-21T08:01:03.423Z,99.90
2022-08-21T08:03:30.347Z,99.90
2022-08-21T08:05:57.773Z,99.90
2022-08-21T08:08:24.710Z,99.90
2022-08-21T08:10:51.676Z,99.90
2022-08-21T08:13:18.370Z,99.90
2022-08-21T08:15:45.226Z,99.90
2022-08-21T08:18:12.376Z,99.90
2022-08-21T08:20:39.415Z,99.90
2022-08-21T08:23:06.906Z,99.90
2022-08-21T08:25:36.440Z,99.90
2022-08-21T08:28:06.430Z,99.90
2022-08-21T08:30:43.647Z,99.90
2022-08-21T08:33:10.847Z,99.90
2022-08-21T08:35:39.091Z,99.90
2022-08-21T08:38:06.747Z,99.90
2022-08-21T08:40:43.004Z,99.90
2022-08-21T08:43:11.057Z,99.90
2022-08-21T08:45:43.479Z,99.90
2022-08-21T08:48:14.241Z,99.90
2022-08-21T08:50:53.486Z,99.90
2022-08-21T08:53:23.387Z,99.90
2022-08-21T08:55:52.312Z,99.90
2022-08-21T08:58:32.326Z,99.90
2022-08-21T09:00:59.988Z,99.90
2022-08-21T09:03:31.742Z,99.90
2022-08-21T09:06:09.224Z,99.90
2022-08-21T09:08:45.750Z,99.90
2022-08-21T09:11:16.006Z,99.90
2022-08-21T09:13:42.689Z,99.90
2022-08-21T09:16:52.577Z,99.90
2022-08-21T09:19:26.293Z,99.90
2022-08-21T09:21:56.630Z,99.90
2022-08-21T09:24:35.744Z,99.90
2022-08-21T09:27:11.711Z,99.90
2022-08-21T09:29:44.576Z,99.90
2022-08-21T09:32:18.804Z,99.90
2022-08-21T09:35:00.985Z,99.90
2022-08-21T09:37:34.141Z,99.90
2022-08-21T09:42:35.560Z,99.90
2022-08-21T09:45:07.315Z,99.90
2022-08-21T09:47:33.991Z,99.90
2022-08-21T09:50:08.407Z,99.90
2022-08-21T09:52:35.464Z,99.90
2022-08-21T09:55:22.138Z,99.90
2022-08-21T09:57:50.450Z,99.90
2022-08-21T10:00:25.959Z,99.90
2022-08-21T10:02:52.763Z,99.90
2022-08-21T10:05:23.919Z,99.90
2022-08-21T10:07:51.101Z,99.90
2022-08-21T10:10:22.743Z,99.90
2022-08-21T10:13:08.143Z,99.90
2022-08-21T10:15:40.905Z,99.90
2022-08-21T10:18:10.653Z,99.90
2022-08-21T10:20:42.047Z,99.90
2022-08-21T10:23:08.729Z,99.90
2022-08-21T10:25:52.027Z,99.90
2022-08-21T10:28:38.378Z,99.90
2022-08-21T10:31:08.285Z,99.90
2022-08-21T10:33:35.039Z,99.90
2022-08-21T10:36:14.044Z,99.90
2022-08-21T10:42:06.714Z,99.90
2022-08-21T10:44:52.275Z,99.90
2022-08-21T10:47:24.991Z,99.90
2022-08-21T10:50:02.390Z,99.90
2022-08-21T10:52:29.046Z,99.90
2022-08-21T10:55:03.175Z,99.90
2022-08-21T10:57:37.262Z,99.90
2022-08-21T11:00:09.538Z,99.90
2022-08-21T11:02:39.958Z,99.90
2022-08-21T11:05:10.654Z,99.90
2022-08-21T11:07:40.551Z,99.90
2022-08-21T11:10:22.043Z,99.90
2022-08-21T11:12:55.501Z,99.90
2022-08-21T11:15:29.540Z,99.90
2022-08-21T11:18:05.176Z,99.90
2022-08-21T11:20:31.838Z,99.90
2022-08-21T11:23:04.091Z,99.90
2022-08-21T11:25:33.727Z,99.90
2022-08-21T11:28:10.876Z,99.90
2022-08-21T11:30:45.927Z,99.90
2022-08-21T11:33:22.626Z,99.90
2022-08-21T11:35:52.783Z,99.90
2022-08-21T11:38:28.903Z,99.90
2022-08-21T11:41:03.888Z,99.90
2022-08-21T11:43:33.539Z,99.90
2022-08-21T11:46:23.508Z,99.90
2022-08-21T11:48:59.931Z,99.90
2022-08-21T11:51:29.987Z,99.60
2022-08-21T11:54:02.791Z,99.60
2022-08-21T11:56:40.021Z,99.40
2022-08-21T11:59:09.107Z,98.70
2022-08-21T12:01:38.285Z,98.10
2022-08-21T12:04:07.425Z,98.40
2022-08-21T12:06:36.632Z,98.00
2022-08-21T12:09:08.381Z,97.50
2022-08-21T12:11:47.389Z,97.90
2022-08-21T12:14:16.039Z,95.70
2022-08-21T12:16:44.068Z,95.20
2022-08-21T12:19:15.443Z,95.20
2022-08-21T12:21:50.412Z,94.10
2022-08-21T12:24:32.335Z,94.90
2022-08-21T12:27:14.210Z,94.60
2022-08-21T12:29:46.241Z,95.30
2022-08-21T12:32:15.925Z,95.50
2022-08-21T12:34:55.067Z,95.30
2022-08-21T12:37:38.142Z,94.90
2022-08-21T12:40:10.750Z,94.20
2022-08-21T12:42:43.263Z,94.70
2022-08-21T12:45:28.876Z,94.10
2022-08-21T12:47:58.423Z,94.40
2022-08-21T12:50:44.053Z,94.80
2022-08-21T12:53:31.693Z,94.90
2022-08-21T12:56:02.881Z,94.80
2022-08-21T12:58:29.852Z,94.40
2022-08-21T13:01:08.416Z,93.70
2022-08-21T13:03:36.553Z,93.40
2022-08-21T13:06:06.843Z,92.80
2022-08-21T13:08:40.798Z,93.30
2022-08-21T13:11:15.213Z,93.10
2022-08-21T13:13:46.869Z,92.90
2022-08-21T13:16:20.604Z,91.90
2022-08-21T13:19:00.296Z,91.90
2022-08-21T13:21:31.928Z,92.30
2022-08-21T13:24:40.725Z,91.50
2022-08-21T13:27:03.422Z,91.30
2022-08-21T13:29:33.198Z,91.30
2022-08-21T13:32:01.546Z,91.10
2022-08-21T13:34:31.246Z,91.60
2022-08-21T13:36:59.804Z,92.30
2022-08-21T13:39:26.993Z,92.80
2022-08-21T13:41:56.749Z,91.20
2022-08-21T13:44:27.473Z,91.40
2022-08-21T13:46:54.899Z,90.40
2022-08-21T13:49:24.206Z,90.10
2022-08-21T13:51:53.039Z,90.60
2022-08-21T13:54:28.043Z,89.40
2022-08-21T13:56:55.294Z,90.60
2022-08-21T13:59:26.673Z,90.70
2022-08-21T14:02:00.335Z,90.90
2022-08-21T14:04:32.214Z,89.50
2022-08-21T14:06:59.035Z,90.30
2022-08-21T14:09:33.630Z,88.80
2022-08-21T14:12:02.199Z,90.20
2022-08-21T14:14:35.499Z,88.50
2022-08-21T14:17:25.209Z,88.50
2022-08-21T14:19:51.025Z,87.10
2022-08-21T14:22:24.035Z,86.70
2022-08-21T14:24:55.092Z,87.30
2022-08-21T14:27:23.988Z,87.80
2022-08-21T14:29:50.668Z,87.80
2022-08-21T14:32:25.319Z,86.90
2022-08-21T14:34:54.585Z,87.50
2022-08-21T14:37:22.137Z,86.70
2022-08-21T14:39:48.929Z,87.80
2022-08-21T14:42:15.735Z,87.60
2022-08-21T14:44:42.420Z,87.20
2022-08-21T14:47:09.687Z,87.30
2022-08-21T14:49:36.408Z,87.00
2022-08-21T14:52:03.210Z,86.70
2022-08-21T14:54:32.395Z,86.70
2022-08-21T14:57:01.466Z,86.50
2022-08-21T14:59:28.440Z,86.20
2022-08-21T15:01:55.227Z,86.50
2022-08-21T15:04:21.845Z,85.50
2022-08-21T15:06:48.541Z,85.60
2022-08-21T15:09:15.242Z,85.20
2022-08-21T15:11:43.270Z,86.70
2022-08-21T15:14:13.907Z,87.30
2022-08-21T15:16:40.691Z,87.00
2022-08-21T15:19:07.330Z,85.70
2022-08-21T15:21:34.010Z,85.70
2022-08-21T15:24:00.683Z,84.20
2022-08-21T15:26:27.408Z,87.50
2022-08-21T15:28:54.075Z,85.70
2022-08-21T15:31:20.807Z,86.40
2022-08-21T15:33:47.461Z,86.80
2022-08-21T15:36:14.167Z,86.30
2022-08-21T15:38:40.941Z,84.60
2022-08-21T15:41:07.698Z,83.30
2022-08-21T15:43:38.138Z,82.70
2022-08-21T15:46:06.733Z,82.30
2022-08-21T15:48:33.514Z,82.10
2022-08-21T15:51:00.193Z,82.70
2022-08-21T15:53:26.871Z,86.50
2022-08-21T15:55:54.270Z,87.20
2022-08-21T15:58:22.339Z,88.90
2022-08-21T16:00:49.061Z,87.50
2022-08-21T16:03:17.786Z,86.70
2022-08-21T16:05:45.208Z,87.20
2022-08-21T16:08:11.990Z,87.20
2022-08-21T16:10:39.025Z,87.30
2022-08-21T16:13:07.238Z,86.60
2022-08-21T16:15:34.289Z,86.00
2022-08-21T16:18:01.003Z,85.50
2022-08-21T16:20:28.906Z,85.30
2022-08-21T16:22:56.875Z,85.00
2022-08-21T16:25:23.878Z,84.80
2022-08-21T16:27:53.662Z,84.90
2022-08-21T16:30:24.285Z,85.20
2022-08-21T16:32:51.718Z,85.20
2022-08-21T16:35:20.337Z,86.10
2022-08-21T16:37:50.030Z,87.10
2022-08-21T16:40:19.719Z,88.30
2022-08-21T16:42:46.539Z,88.40
2022-08-21T16:45:15.022Z,88.60
2022-08-21T16:47:43.079Z,88.80
2022-08-21T16:50:10.169Z,89.30
2022-08-21T16:52:37.045Z,89.50
2022-08-21T16:55:05.230Z,89.30
2022-08-21T16:57:31.981Z,89.40
2022-08-21T16:59:58.724Z,89.30
2022-08-21T17:02:31.628Z,89.30
2022-08-21T17:04:58.467Z,89.90
2022-08-21T17:07:25.188Z,90.00
2022-08-21T17:09:51.904Z,88.90
2022-08-21T17:12:18.765Z,89.10
2022-08-21T17:14:45.533Z,89.90
2022-08-21T17:17:12.416Z,90.20
2022-08-21T17:19:39.148Z,90.00
2022-08-21T17:22:06.332Z,89.10
2022-08-21T17:24:33.697Z,90.00
2022-08-21T17:27:00.771Z,90.20
2022-08-21T17:29:29.099Z,90.40
2022-08-21T17:31:56.176Z,90.30
2022-08-21T17:34:23.366Z,90.20
2022-08-21T17:36:55.668Z,90.50
2022-08-21T17:39:26.510Z,90.60
2022-08-21T17:41:57.635Z,91.00
2022-08-21T17:44:24.870Z,91.10
2022-08-21T17:46:51.547Z,91.20
2022-08-21T17:49:18.283Z,91.70
2022-08-21T17:51:44.967Z,92.60
2022-08-21T17:54:11.757Z,93.30
2022-08-21T17:56:40.377Z,93.30
2022-08-21T17:59:07.126Z,93.20
2022-08-21T18:01:35.521Z,93.80
2022-08-21T18:04:02.547Z,93.90
2022-08-21T18:06:29.410Z,94.40
2022-08-21T18:08:57.858Z,94.80
2022-08-21T18:11:25.639Z,95.00
2022-08-21T18:13:54.111Z,94.20
2022-08-21T18:16:21.570Z,94.70
2022-08-21T18:18:49.229Z,95.70
2022-08-21T18:21:16.389Z,96.40
2022-08-21T18:23:44.979Z,96.40
2022-08-21T18:26:14.263Z,97.70
2022-08-21T18:28:41.260Z,98.10
2022-08-21T18:31:09.381Z,97.80
2022-08-21T18:33:37.262Z,98.40
2022-08-21T18:36:04.614Z,98.00
2022-08-21T18:38:31.567Z,98.30
2022-08-21T18:40:59.787Z,97.80
2022-08-21T18:43:26.668Z,98.60
2022-08-21T18:45:53.518Z,99.00
2022-08-21T18:48:20.676Z,98.70
2022-08-21T18:50:48.155Z,99.50
2022-08-21T18:53:24.065Z,99.90
2022-08-21T18:55:54.635Z,99.90
2022-08-21T18:58:23.913Z,99.90
2022-08-21T19:00:51.606Z,99.90
2022-08-21T19:03:23.700Z,99.60
2022-08-21T19:06:09.639Z,99.90
2022-08-21T19:08:38.747Z,99.90
2022-08-21T19:11:06.676Z,99.90
2022-08-21T19:13:33.861Z,99.90
2022-08-21T19:16:03.741Z,99.90
2022-08-21T19:18:31.949Z,99.90
2022-08-21T19:20:58.903Z,99.90
2022-08-21T19:23:29.197Z,99.90
2022-08-21T19:26:00.456Z,99.90
2022-08-21T19:28:29.880Z,99.90
2022-08-21T19:31:02.037Z,99.90
2022-08-21T19:33:31.317Z,99.90
2022-08-21T19:36:00.503Z,99.90
2022-08-21T19:38:27.462Z,99.90
2022-08-21T19:40:55.921Z,99.90
2022-08-21T19:43:23.421Z,99.90
2022-08-21T19:45:51.002Z,99.90
2022-08-21T19:48:18.997Z,99.90
2022-08-21T19:50:45.925Z,99.90
2022-08-21T19:53:12.699Z,99.90
2022-08-21T19:55:42.894Z,99.90
2022-08-21T19:58:13.883Z,99.90
2022-08-21T20:00:40.591Z,99.90
2022-08-21T20:03:11.062Z,99.90
2022-08-21T20:05:39.830Z,99.90
2022-08-21T20:10:56.032Z,99.90
2022-08-21T20:13:25.708Z,99.90
2022-08-21T20:15:53.108Z,99.90
2022-08-21T20:18:20.443Z,99.90
2022-08-21T20:20:53.729Z,99.90
2022-08-21T20:23:29.974Z,99.90
2022-08-21T20:25:57.930Z,99.90
2022-08-21T20:28:24.751Z,99.90
2022-08-21T20:30:52.851Z,99.90
2022-08-21T20:33:19.754Z,99.90
2022-08-21T20:35:49.848Z,99.90
2022-08-21T20:38:16.964Z,99.90
2022-08-21T20:40:44.181Z,99.90
2022-08-21T20:43:12.671Z,99.90
2022-08-21T20:45:40.200Z,99.90
2022-08-21T20:48:23.737Z,99.90
2022-08-21T20:50:52.072Z,99.90
2022-08-21T20:53:44.542Z,99.90
2022-08-21T20:56:20.234Z,99.90
2022-08-21T20:59:01.437Z,99.90
2022-08-21T21:01:31.444Z,99.90
2022-08-21T21:04:04.463Z,99.90
2022-08-21T21:06:37.433Z,99.90
2022-08-21T21:09:07.874Z,99.90
2022-08-21T21:11:38.313Z,99.90
2022-08-21T21:14:16.527Z,99.90
2022-08-21T21:19:48.785Z,99.90
2022-08-21T21:22:27.887Z,99.90
2022-08-21T21:25:08.109Z,99.90
2022-08-21T21:27:37.579Z,99.90
2022-08-21T21:30:07.041Z,99.90
2022-08-21T21:32:39.183Z,99.90
2022-08-21T21:35:06.697Z,99.90
2022-08-21T21:37:43.760Z,99.90
2022-08-21T21:40:32.845Z,99.90
2022-08-21T21:43:08.274Z,99.90
2022-08-21T21:45:41.082Z,99.90
2022-08-21T21:48:07.694Z,99.90
2022-08-21T21:50:37.499Z,99.90
2022-08-21T21:53:19.728Z,99.90
2022-08-21T21:55:47.322Z,99.90
2022-08-21T21:58:33.375Z,99.90
2022-08-21T22:01:09.567Z,99.90
2022-08-21T22:03:45.960Z,99.90
2022-08-21T22:06:33.465Z,99.90
2022-08-21T22:09:20.813Z,99.90
2022-08-21T22:12:15.689Z,99.90
2022-08-21T22:14:43.797Z,99.90
2022-08-21T22:17:27.640Z,99.90
2022-08-21T22:19:55.433Z,99.90
2022-08-21T22:22:24.695Z,99.90
2022-08-21T22:24:53.564Z,99.90
2022-08-21T22:27:29.150Z,99.90
2022-08-21T22:29:58.994Z,99.90
2022-08-21T22:32:35.455Z,99.90
2022-08-21T22:35:05.104Z,99.90
2022-08-21T22:37:37.582Z,99.90
2022-08-21T22:40:04.916Z,99.90
2022-08-21T22:42:31.595Z,99.90
2022-08-21T22:45:00.537Z,99.90
2022-08-21T22:47:41.509Z,99.90
2022-08-21T22:50:27.586Z,99.90
2022-08-21T22:52:58.259Z,99.90
2022-08-21T22:55:27.115Z,99.90
2022-08-21T22:58:11.549Z,99.90
2022-08-21T23:00:58.750Z,99.90
2022-08-21T23:03:31.745Z,99.90
2022-08-21T23:06:00.764Z,99.90
2022-08-21T23:08:35.935Z,99.90
2022-08-21T23:11:05.305Z,99.90
2022-08-21T23:13:39.722Z,99.90
2022-08-21T23:16:15.718Z,99.90
2022-08-21T23:18:48.789Z,99.90
2022-08-21T23:21:35.838Z,99.90
2022-08-21T23:24:19.370Z,99.90
2022-08-21T23:26:59.039Z,99.90
2022-08-21T23:29:36.096Z,99.90
